Time;durP1;ratioP1;P1;durP2;ratioP2;P2;SDS_P1;SDS_P2;PMS_P1;PMS_P2;Temp;Humidity;BMP_temperature;BMP_pressure;BME280_temperature;BME280_humidity;BME280_pressure;Samples;Min_cycle;Max_cycle;Signal;HPM_P1;HPM_P2
2023/03/01 00:02:06;;;;;;;30.90;16.30;;;-1.20;99.90;;;;;;5058414;28;20040;-69
2023/03/01 00:04:32;;;;;;;32.35;17.23;;;-1.30;99.90;;;;;;5066146;28;20122;-69
2023/03/01 00:06:58;;;;;;;28.98;16.05;;;-1.30;99.90;;;;;;5048449;28;20036;-69
2023/03/01 00:09:23;;;;;;;39.38;16.45;;;-1.30;99.90;;;;;;5049545;28;20044;-69
2023/03/01 00:11:49;;;;;;;23.10;13.07;;;-1.30;99.90;;;;;;5049627;28;20120;-69
2023/03/01 00:14:16;;;;;;;26.50;13.35;;;-1.40;99.90;;;;;;5050228;28;20488;-69
2023/03/01 00:16:43;;;;;;;27.30;15.32;;;-1.40;99.90;;;;;;5065870;28;20048;-69
2023/03/01 00:19:18;;;;;;;26.10;13.90;;;-1.50;99.90;;;;;;5064499;28;20032;-69
2023/03/01 00:21:43;;;;;;;23.77;13.02;;;-1.50;99.90;;;;;;5062212;28;20040;-69
2023/03/01 00:24:10;;;;;;;26.42;14.65;;;-1.50;99.90;;;;;;5058273;28;20044;-69
2023/03/01 00:26:36;;;;;;;26.83;15.38;;;-1.50;99.90;;;;;;5062705;28;20488;-69
2023/03/01 00:29:01;;;;;;;28.45;15.55;;;-1.50;99.90;;;;;;5064089;28;20047;-69
2023/03/01 00:31:29;;;;;;;30.08;15.68;;;-1.60;99.90;;;;;;5048638;28;20028;-69
2023/03/01 00:33:57;;;;;;;25.88;14.05;;;-1.60;99.90;;;;;;5038372;28;20033;-69
2023/03/01 00:36:24;;;;;;;28.13;15.57;;;-1.70;99.90;;;;;;5044021;28;20048;-69
2023/03/01 00:38:50;;;;;;;25.92;14.75;;;-1.70;99.90;;;;;;5048825;28;20051;-69
2023/03/01 00:41:18;;;;;;;28.20;14.05;;;-1.70;99.90;;;;;;5062616;28;20130;-69
2023/03/01 00:43:44;;;;;;;25.38;15.13;;;-1.70;99.90;;;;;;5049883;28;20450;-69
2023/03/01 00:46:12;;;;;;;31.83;16.33;;;-1.70;99.90;;;;;;5061920;28;20052;-69
2023/03/01 00:48:38;;;;;;;31.77;17.58;;;-1.80;99.90;;;;;;5042444;28;20045;-69
2023/03/01 00:51:08;;;;;;;28.90;16.95;;;-1.80;99.90;;;;;;5066571;28;20058;-69
2023/03/01 00:53:34;;;;;;;33.65;17.58;;;-1.80;99.90;;;;;;5056803;28;20408;-69
2023/03/01 00:56:00;;;;;;;32.90;17.75;;;-1.80;99.90;;;;;;5048467;28;20036;-69
2023/03/01 00:58:25;;;;;;;37.17;18.38;;;-1.80;99.90;;;;;;5059575;28;20033;-69
2023/03/01 01:00:52;;;;;;;34.72;18.25;;;-1.80;99.90;;;;;;5063597;28;20642;-69
2023/03/01 01:03:18;;;;;;;33.20;18.50;;;-1.80;99.90;;;;;;5046034;28;20109;-69
2023/03/01 01:05:44;;;;;;;42.67;21.10;;;-1.80;99.90;;;;;;5067234;28;20407;-69
2023/03/01 01:08:09;;;;;;;37.58;19.38;;;-1.80;99.90;;;;;;5065932;28;20215;-69
2023/03/01 01:10:35;;;;;;;31.98;18.23;;;-1.80;99.90;;;;;;5066537;28;20036;-69
2023/03/01 01:13:01;;;;;;;37.25;19.30;;;-1.80;99.90;;;;;;5060744;28;20453;-69
2023/03/01 01:15:26;;;;;;;38.20;19.75;;;-1.80;99.90;;;;;;5060552;28;20110;-69
2023/03/01 01:17:52;;;;;;;38.22;19.75;;;-1.80;99.90;;;;;;5048801;28;20463;-69
2023/03/01 01:20:18;;;;;;;39.45;20.05;;;-1.90;99.90;;;;;;5043307;28;20064;-69
2023/03/01 01:22:43;;;;;;;36.80;19.20;;;-1.80;99.90;;;;;;5045481;28;20044;-69
2023/03/01 01:25:10;;;;;;;38.05;19.15;;;-1.90;99.90;;;;;;5061190;28;20055;-69
2023/03/01 01:27:37;;;;;;;34.38;18.02;;;-1.90;99.90;;;;;;5046809;28;20130;-69
2023/03/01 01:30:03;;;;;;;37.90;18.42;;;-1.90;99.90;;;;;;5058216;28;20128;-69
2023/03/01 01:32:29;;;;;;;36.42;19.40;;;-1.90;99.90;;;;;;5062093;28;20043;-69
2023/03/01 01:34:55;;;;;;;39.30;20.30;;;-1.90;99.90;;;;;;5070262;28;20036;-69
2023/03/01 01:37:21;;;;;;;37.95;19.30;;;-1.90;99.90;;;;;;5064143;28;20037;-71
2023/03/01 01:39:46;;;;;;;40.25;19.23;;;-1.90;99.90;;;;;;5086588;28;20038;-69
2023/03/01 01:42:17;;;;;;;41.75;19.90;;;-1.90;99.90;;;;;;5065939;28;20048;-69
2023/03/01 01:44:46;;;;;;;39.10;19.20;;;-1.90;99.90;;;;;;5050342;28;20028;-69
2023/03/01 01:47:20;;;;;;;39.35;20.50;;;-1.90;99.90;;;;;;5077268;28;20505;-69
2023/03/01 01:49:55;;;;;;;40.42;20.42;;;-1.90;99.90;;;;;;5068997;28;20047;-69
2023/03/01 01:52:35;;;;;;;37.38;19.80;;;-1.90;99.90;;;;;;5066240;28;20135;-69
2023/03/01 01:55:06;;;;;;;36.15;19.23;;;-1.80;99.90;;;;;;5068849;28;20424;-70
2023/03/01 01:57:42;;;;;;;34.83;19.05;;;-1.80;99.90;;;;;;5065259;28;20400;-69
2023/03/01 02:00:21;;;;;;;37.38;18.60;;;-1.80;99.90;;;;;;5064382;28;20036;-69
2023/03/01 02:02:51;;;;;;;38.28;17.77;;;-1.90;99.90;;;;;;5067741;28;20522;-69
2023/03/01 02:05:26;;;;;;;37.78;18.38;;;-1.90;99.90;;;;;;5049885;28;20049;-69
2023/03/01 02:07:52;;;;;;;37.38;18.25;;;-1.90;99.90;;;;;;5067334;28;20047;-69
2023/03/01 02:10:19;;;;;;;37.65;18.98;;;-2.00;99.90;;;;;;5052329;28;20044;-69
2023/03/01 02:12:45;;;;;;;34.55;17.20;;;-1.90;99.90;;;;;;5066088;28;20131;-69
2023/03/01 02:15:11;;;;;;;32.65;16.30;;;-1.90;99.90;;;;;;5083487;28;20040;-69
2023/03/01 02:17:37;;;;;;;79.78;20.85;;;-2.00;99.90;;;;;;5049114;28;20314;-69
2023/03/01 02:20:49;;;;;;;129.75;21.50;;;-2.00;99.90;;;;;;5046727;28;20039;-69
2023/03/01 02:23:15;;;;;;;146.80;24.17;;;-2.00;99.90;;;;;;5064793;28;20044;-69
2023/03/01 02:26:18;;;;;;;154.40;23.50;;;-2.00;99.90;;;;;;5044318;28;20056;-69
2023/03/01 02:28:44;;;;;;;168.40;24.75;;;-2.00;99.90;;;;;;5065003;28;20035;-69
2023/03/01 02:33:59;;;;;;;143.35;23.65;;;-2.10;99.90;;;;;;5081440;28;20044;-69
2023/03/01 02:36:30;;;;;;;98.40;21.52;;;-2.10;99.90;;;;;;5065890;28;20047;-69
2023/03/01 02:38:59;;;;;;;183.15;22.52;;;-2.10;99.90;;;;;;5050603;28;20139;-69
2023/03/01 02:41:27;;;;;;;212.20;30.10;;;-2.10;99.90;;;;;;5067202;28;20942;-69
2023/03/01 02:43:53;;;;;;;235.10;31.42;;;-2.10;99.90;;;;;;5039472;28;20414;-69
2023/03/01 02:46:23;;;;;;;244.63;31.17;;;-2.10;99.90;;;;;;5070071;28;20048;-69
2023/03/01 02:48:54;;;;;;;284.75;33.15;;;-2.10;99.90;;;;;;5063821;28;20487;-69
2023/03/01 02:51:22;;;;;;;106.38;23.15;;;-2.10;99.90;;;;;;5051203;28;20047;-69
2023/03/01 02:54:08;;;;;;;137.98;26.30;;;-2.10;99.90;;;;;;5061702;28;20089;-69
2023/03/01 02:56:35;;;;;;;101.35;21.23;;;-2.10;99.90;;;;;;5060823;28;20040;-69
2023/03/01 02:59:00;;;;;;;67.05;20.75;;;-2.20;99.90;;;;;;5059943;28;20622;-69
2023/03/01 03:01:37;;;;;;;108.00;23.67;;;-2.20;99.90;;;;;;5064255;28;20147;-69
2023/03/01 03:04:09;;;;;;;51.22;19.98;;;-2.20;99.90;;;;;;5059069;28;20040;-69
2023/03/01 03:06:35;;;;;;;79.38;21.15;;;-2.30;99.90;;;;;;5060316;28;20080;-69
2023/03/01 03:09:02;;;;;;;57.38;18.77;;;-2.30;99.90;;;;;;5060618;28;20071;-69
2023/03/01 03:11:27;;;;;;;54.55;19.23;;;-2.40;99.90;;;;;;5050362;28;20526;-69
2023/03/01 03:13:54;;;;;;;39.80;18.27;;;-2.40;99.90;;;;;;5063901;28;20040;-69
2023/03/01 03:16:20;;;;;;;70.00;19.40;;;-2.40;99.90;;;;;;5066852;28;20046;-69
2023/03/01 03:18:46;;;;;;;77.47;20.75;;;-2.50;99.90;;;;;;5052603;28;20048;-69
2023/03/01 03:21:12;;;;;;;89.97;20.95;;;-2.50;99.90;;;;;;5066997;28;20128;-69
2023/03/01 03:23:39;;;;;;;134.77;24.25;;;-2.50;99.90;;;;;;5065287;28;20086;-69
2023/03/01 03:26:05;;;;;;;80.97;20.73;;;-2.60;99.90;;;;;;5061344;28;20067;-69
2023/03/01 03:28:32;;;;;;;96.60;21.38;;;-2.60;99.90;;;;;;5052631;28;20392;-69
2023/03/01 03:31:03;;;;;;;125.28;23.25;;;-2.60;99.90;;;;;;5065933;28;20407;-68
2023/03/01 03:33:31;;;;;;;79.53;20.25;;;-2.70;99.90;;;;;;5063728;28;20046;-68
2023/03/01 03:35:57;;;;;;;79.22;19.23;;;-2.70;99.90;;;;;;5048840;28;20036;-69
2023/03/01 03:38:23;;;;;;;77.20;21.85;;;-2.80;99.90;;;;;;5062817;28;20039;-69
2023/03/01 03:41:03;;;;;;;47.85;17.85;;;-2.80;99.90;;;;;;5065499;28;20542;-69
2023/03/01 03:43:31;;;;;;;45.25;17.90;;;-2.90;99.90;;;;;;5067527;28;20131;-69
2023/03/01 03:45:56;;;;;;;67.63;18.45;;;-2.90;99.90;;;;;;5064983;28;20043;-69
2023/03/01 03:48:23;;;;;;;44.63;17.30;;;-2.90;99.90;;;;;;5060177;28;20040;-69
2023/03/01 03:50:56;;;;;;;73.32;19.13;;;-2.90;99.90;;;;;;5062605;28;20036;-69
2023/03/01 03:53:24;;;;;;;98.55;18.02;;;-3.00;99.90;;;;;;5059365;28;20052;-68
2023/03/01 03:55:51;;;;;;;42.72;16.45;;;-3.00;99.90;;;;;;5048538;28;20530;-69
2023/03/01 03:58:19;;;;;;;49.05;17.27;;;-3.00;99.90;;;;;;5063589;28;20043;-69
2023/03/01 04:00:46;;;;;;;53.42;17.17;;;-3.00;99.90;;;;;;5066388;28;20106;-69
2023/03/01 04:03:14;;;;;;;52.88;16.95;;;-3.10;99.90;;;;;;5039300;28;20074;-69
2023/03/01 04:05:40;;;;;;;31.50;17.13;;;-3.10;99.90;;;;;;5065421;28;20062;-69
2023/03/01 04:08:07;;;;;;;80.90;20.75;;;-3.10;99.90;;;;;;5063875;28;20090;-69
2023/03/01 04:10:37;;;;;;;64.60;20.17;;;-3.10;99.90;;;;;;5066340;28;20040;-69
2023/03/01 04:13:03;;;;;;;89.07;20.60;;;-3.10;99.90;;;;;;5058733;28;20032;-68
2023/03/01 04:15:30;;;;;;;88.00;20.83;;;-3.10;99.90;;;;;;5064988;28;20101;-69
2023/03/01 04:17:56;;;;;;;119.60;24.55;;;-3.10;99.90;;;;;;5065294;28;20036;-68
2023/03/01 04:20:28;;;;;;;79.88;19.15;;;-3.10;99.90;;;;;;5066363;28;20102;-69
2023/03/01 04:23:20;;;;;;;48.05;18.10;;;-3.10;99.90;;;;;;5062817;28;20055;-70
2023/03/01 04:25:54;;;;;;;37.60;17.90;;;-3.10;99.90;;;;;;5041809;28;20091;-69
2023/03/01 04:28:24;;;;;;;38.92;19.70;;;-3.00;99.90;;;;;;5051610;28;20145;-69
2023/03/01 04:30:51;;;;;;;49.33;17.98;;;-3.10;99.90;;;;;;5067028;28;20189;-68
2023/03/01 04:33:17;;;;;;;75.15;22.70;;;-3.00;99.90;;;;;;5064312;28;20440;-69
2023/03/01 04:35:43;;;;;;;124.07;24.27;;;-3.00;99.90;;;;;;5063161;28;20062;-69
2023/03/01 04:38:09;;;;;;;62.65;19.88;;;-3.00;99.90;;;;;;5052054;28;20082;-69
2023/03/01 04:40:35;;;;;;;81.95;21.35;;;-3.00;99.90;;;;;;5043374;28;20040;-69
2023/03/01 04:43:02;;;;;;;40.17;19.13;;;-3.00;99.90;;;;;;5066089;28;20044;-69
2023/03/01 04:45:27;;;;;;;65.10;20.20;;;-3.00;99.90;;;;;;5065024;28;20071;-69
2023/03/01 04:47:53;;;;;;;67.28;21.52;;;-3.10;99.90;;;;;;5062409;28;20117;-68
2023/03/01 04:50:20;;;;;;;46.92;19.35;;;-3.10;99.90;;;;;;5060424;28;20036;-68
2023/03/01 04:52:47;;;;;;;74.38;21.23;;;-3.10;99.90;;;;;;5058754;28;20051;-68
2023/03/01 04:55:13;;;;;;;60.45;21.10;;;-3.10;99.90;;;;;;5044804;28;20074;-68
2023/03/01 04:57:39;;;;;;;60.78;20.02;;;-3.10;99.90;;;;;;5065111;28;20044;-68
2023/03/01 05:00:19;;;;;;;83.93;22.63;;;-3.20;99.90;;;;;;5067255;28;20040;-68
2023/03/01 05:02:57;;;;;;;62.28;18.90;;;-3.20;99.90;;;;;;5049212;28;20047;-68
2023/03/01 05:05:25;;;;;;;72.60;19.58;;;-3.20;99.90;;;;;;5049214;28;20040;-68
2023/03/01 05:07:58;;;;;;;231.48;29.30;;;-3.30;99.90;;;;;;5070035;28;20412;-68
2023/03/01 05:10:26;;;;;;;53.67;19.60;;;-3.30;99.90;;;;;;5069507;28;20102;-69
2023/03/01 05:12:54;;;;;;;77.95;20.58;;;-3.30;99.90;;;;;;5050646;28;20674;-69
2023/03/01 05:15:21;;;;;;;73.85;21.88;;;-3.30;99.90;;;;;;5068672;28;20043;-69
2023/03/01 05:17:48;;;;;;;101.78;21.98;;;-3.30;99.90;;;;;;5048595;28;20040;-69
2023/03/01 05:20:13;;;;;;;84.72;20.88;;;-3.30;99.90;;;;;;5086355;28;20062;-69
2023/03/01 05:22:39;;;;;;;78.13;20.88;;;-3.30;99.90;;;;;;5066251;28;20045;-69
2023/03/01 05:25:07;;;;;;;55.63;19.80;;;-3.40;99.90;;;;;;5080771;28;20110;-69
2023/03/01 05:27:33;;;;;;;52.95;19.35;;;-3.40;99.90;;;;;;5065360;28;20036;-69
2023/03/01 05:29:58;;;;;;;62.50;20.95;;;-3.30;99.90;;;;;;5051674;28;20450;-69
2023/03/01 05:32:24;;;;;;;68.43;21.00;;;-3.40;99.90;;;;;;5044775;28;20114;-69
2023/03/01 05:34:51;;;;;;;47.25;18.58;;;-3.40;99.90;;;;;;5063998;28;20040;-69
2023/03/01 05:37:18;;;;;;;89.13;21.25;;;-3.40;99.90;;;;;;5066764;28;20485;-69
2023/03/01 05:39:44;;;;;;;43.85;18.63;;;-3.50;99.90;;;;;;5050390;28;20433;-69
2023/03/01 05:42:11;;;;;;;64.28;18.33;;;-3.50;99.90;;;;;;5049838;28;20571;-69
2023/03/01 05:44:37;;;;;;;62.55;18.63;;;-3.50;99.90;;;;;;5066455;28;20127;-69
2023/03/01 05:47:03;;;;;;;33.53;17.23;;;-3.60;99.90;;;;;;5069647;28;20151;-69
2023/03/01 05:49:29;;;;;;;42.33;19.80;;;-3.50;99.90;;;;;;5050832;28;20495;-69
2023/03/01 05:51:55;;;;;;;51.25;19.45;;;-3.60;99.90;;;;;;5068147;28;20040;-69
2023/03/01 05:54:21;;;;;;;42.53;17.70;;;-3.60;99.90;;;;;;5066344;28;20047;-69
2023/03/01 05:56:47;;;;;;;37.55;17.52;;;-3.60;99.90;;;;;;5070263;28;20040;-69
2023/03/01 05:59:14;;;;;;;111.05;21.98;;;-3.60;99.90;;;;;;5045919;28;20040;-69
2023/03/01 06:01:40;;;;;;;72.28;20.02;;;-3.70;99.90;;;;;;5082660;28;20504;-69
2023/03/01 06:04:06;;;;;;;52.42;18.55;;;-3.70;99.90;;;;;;5068386;28;20046;-69
2023/03/01 06:06:37;;;;;;;47.58;19.05;;;-3.70;99.90;;;;;;5052582;28;20064;-69
2023/03/01 06:09:03;;;;;;;37.28;17.45;;;-3.70;99.90;;;;;;5068012;28;20101;-69
2023/03/01 06:11:29;;;;;;;45.85;19.48;;;-3.70;99.90;;;;;;5052965;28;20058;-69
2023/03/01 06:13:55;;;;;;;43.28;19.45;;;-3.70;99.90;;;;;;5065679;28;20040;-69
2023/03/01 06:16:20;;;;;;;83.05;22.40;;;-3.80;99.90;;;;;;5068053;28;20040;-69
2023/03/01 06:18:46;;;;;;;68.20;21.10;;;-3.80;99.90;;;;;;5065243;28;20040;-69
2023/03/01 06:21:11;;;;;;;44.53;18.88;;;-3.80;99.90;;;;;;5067033;28;20044;-69
2023/03/01 06:23:37;;;;;;;42.28;21.10;;;-3.80;99.90;;;;;;5061903;28;20041;-69
2023/03/01 06:26:09;;;;;;;42.10;20.73;;;-3.90;99.90;;;;;;5047997;28;20058;-69
2023/03/01 06:28:36;;;;;;;42.50;20.40;;;-3.90;99.90;;;;;;5068400;28;20464;-69
2023/03/01 06:31:01;;;;;;;52.55;25.08;;;-3.90;99.90;;;;;;5069349;28;20036;-69
2023/03/01 06:33:27;;;;;;;42.95;21.48;;;-3.90;99.90;;;;;;5064599;28;20511;-69
2023/03/01 06:35:58;;;;;;;40.42;20.05;;;-4.00;99.90;;;;;;5047511;28;20048;-69
2023/03/01 06:38:24;;;;;;;34.67;17.90;;;-4.00;99.90;;;;;;5047911;28;20060;-69
2023/03/01 06:40:54;;;;;;;33.72;16.58;;;-4.00;99.90;;;;;;5048996;28;20032;-69
2023/03/01 06:43:21;;;;;;;33.60;17.13;;;-4.00;99.90;;;;;;5065413;28;20094;-69
2023/03/01 06:45:46;;;;;;;39.25;17.98;;;-3.90;99.90;;;;;;5062378;28;20439;-69
2023/03/01 06:48:12;;;;;;;30.80;16.58;;;-4.00;99.90;;;;;;5064349;28;20089;-69
2023/03/01 06:50:38;;;;;;;30.20;16.75;;;-3.90;99.90;;;;;;5061827;28;20044;-69
2023/03/01 06:53:04;;;;;;;31.45;16.65;;;-3.90;99.90;;;;;;5054847;28;20491;-69
2023/03/01 06:55:30;;;;;;;25.40;15.30;;;-3.90;99.90;;;;;;5064786;28;20434;-69
2023/03/01 06:57:57;;;;;;;30.77;15.38;;;-3.90;99.90;;;;;;5066785;28;20042;-69
2023/03/01 07:00:23;;;;;;;27.90;16.20;;;-3.80;99.90;;;;;;5065400;28;20033;-69
2023/03/01 07:02:49;;;;;;;29.77;16.08;;;-3.80;99.90;;;;;;5060957;28;20151;-69
2023/03/01 07:05:15;;;;;;;34.22;17.23;;;-3.80;99.90;;;;;;5067855;28;20166;-69
2023/03/01 07:07:40;;;;;;;32.22;16.95;;;-3.70;99.90;;;;;;5064330;28;20122;-69
2023/03/01 07:10:07;;;;;;;33.67;16.83;;;-3.70;99.90;;;;;;5049830;28;20043;-69
2023/03/01 07:12:32;;;;;;;35.13;18.17;;;-3.60;99.90;;;;;;5066119;28;20372;-69
2023/03/01 07:14:58;;;;;;;34.45;17.85;;;-3.60;99.90;;;;;;5064087;28;20049;-69
2023/03/01 07:17:24;;;;;;;32.85;16.55;;;-3.50;99.90;;;;;;5065151;28;20033;-69
2023/03/01 07:19:49;;;;;;;34.67;18.63;;;-3.50;99.90;;;;;;5050068;28;20044;-69
2023/03/01 07:22:15;;;;;;;30.85;17.48;;;-3.40;99.90;;;;;;5066307;28;20534;-69
2023/03/01 07:24:41;;;;;;;28.40;17.30;;;-3.30;99.90;;;;;;5084369;28;20511;-69
2023/03/01 07:27:07;;;;;;;32.72;16.50;;;-3.30;99.90;;;;;;5067259;28;20105;-69
2023/03/01 07:29:33;;;;;;;29.90;16.33;;;-3.10;99.90;;;;;;5065454;28;20036;-69
2023/03/01 07:31:58;;;;;;;31.70;17.20;;;-3.00;99.90;;;;;;5065812;28;20059;-69
2023/03/01 07:34:24;;;;;;;27.80;15.90;;;-2.90;99.90;;;;;;5067431;28;20641;-69
2023/03/01 07:36:50;;;;;;;28.38;16.70;;;-2.80;99.90;;;;;;5065688;28;20146;-69
2023/03/01 07:39:16;;;;;;;32.13;16.35;;;-2.60;99.90;;;;;;5065087;28;20577;-69
2023/03/01 07:41:41;;;;;;;31.92;17.63;;;-2.50;99.90;;;;;;5069918;28;20059;-69
2023/03/01 07:44:07;;;;;;;30.92;17.83;;;-2.30;99.90;;;;;;5058432;28;20064;-69
2023/03/01 07:46:33;;;;;;;32.83;17.88;;;-2.20;99.90;;;;;;5059682;28;20044;-69
2023/03/01 07:48:58;;;;;;;32.53;17.67;;;-2.10;99.90;;;;;;5064997;28;20044;-69
2023/03/01 07:51:24;;;;;;;33.83;18.92;;;-1.80;99.90;;;;;;5045861;28;20040;-69
2023/03/01 07:53:50;;;;;;;37.47;20.83;;;-1.70;99.90;;;;;;5048932;28;20036;-69
2023/03/01 07:56:17;;;;;;;36.85;20.50;;;-1.60;99.90;;;;;;5065316;28;20391;-69
2023/03/01 07:58:43;;;;;;;36.05;20.88;;;-1.50;99.90;;;;;;5066159;28;20373;-69
2023/03/01 08:01:13;;;;;;;39.65;21.55;;;-1.30;99.90;;;;;;5056503;28;20123;-69
2023/03/01 08:03:39;;;;;;;38.55;21.23;;;-1.20;99.90;;;;;;5066514;28;20048;-69
2023/03/01 08:06:08;;;;;;;40.42;21.67;;;-1.10;99.90;;;;;;5065181;28;20051;-69
2023/03/01 08:08:35;;;;;;;39.35;22.60;;;-0.90;99.90;;;;;;5051800;28;20042;-69
2023/03/01 08:11:03;;;;;;;44.28;23.67;;;-0.80;99.90;;;;;;5041679;28;20036;-69
2023/03/01 08:13:29;;;;;;;41.53;23.10;;;-0.60;99.90;;;;;;5063001;28;20453;-69
2023/03/01 08:16:04;;;;;;;42.72;24.55;;;-0.50;99.90;;;;;;5045615;28;20040;-68
2023/03/01 08:18:30;;;;;;;42.25;24.20;;;-0.30;99.90;;;;;;5067425;28;20110;-68
2023/03/01 08:20:55;;;;;;;42.28;25.15;;;-0.20;99.90;;;;;;5065887;28;20044;-69
2023/03/01 08:23:21;;;;;;;43.28;25.20;;;-0.10;99.90;;;;;;5066277;28;20521;-69
2023/03/01 08:25:47;;;;;;;49.33;27.88;;;0.00;99.90;;;;;;5067283;28;20129;-69
2023/03/01 08:28:12;;;;;;;48.95;25.65;;;0.10;99.90;;;;;;5065848;28;20438;-69
2023/03/01 08:30:38;;;;;;;47.17;25.30;;;0.20;99.90;;;;;;5051110;28;20443;-69
2023/03/01 08:33:03;;;;;;;40.95;24.42;;;0.30;99.90;;;;;;5057926;28;20036;-69
2023/03/01 08:35:29;;;;;;;46.67;25.17;;;0.50;99.90;;;;;;5044795;28;20392;-69
2023/03/01 08:37:55;;;;;;;45.00;24.75;;;0.80;99.90;;;;;;5045859;28;20054;-69
2023/03/01 08:40:20;;;;;;;46.35;25.65;;;1.10;99.90;;;;;;5044410;28;20380;-69
2023/03/01 08:42:46;;;;;;;49.03;25.75;;;1.40;99.90;;;;;;5069844;28;20067;-70
2023/03/01 08:45:12;;;;;;;45.00;25.23;;;1.80;99.90;;;;;;5050645;28;20036;-70
2023/03/01 08:47:38;;;;;;;43.97;25.38;;;2.00;99.90;;;;;;5051785;28;20044;-70
2023/03/01 08:50:05;;;;;;;47.90;25.60;;;2.20;99.90;;;;;;5058682;28;20571;-70
2023/03/01 08:52:32;;;;;;;51.88;27.65;;;2.80;99.90;;;;;;5053695;28;20454;-70
2023/03/01 08:55:01;;;;;;;43.78;24.20;;;3.40;99.90;;;;;;5065859;28;20079;-70
2023/03/01 08:57:26;;;;;;;45.88;25.50;;;3.90;99.90;;;;;;5065514;28;20066;-70
2023/03/01 08:59:52;;;;;;;44.92;26.40;;;4.00;99.90;;;;;;5069541;28;20047;-70
2023/03/01 09:02:18;;;;;;;43.08;27.08;;;4.10;99.90;;;;;;5067068;28;20032;-70
2023/03/01 09:04:44;;;;;;;42.22;25.48;;;4.30;99.90;;;;;;5053807;28;20036;-70
2023/03/01 09:07:10;;;;;;;41.42;23.90;;;4.50;99.90;;;;;;5052037;28;20105;-70
2023/03/01 09:09:36;;;;;;;42.47;26.88;;;4.60;99.90;;;;;;5066500;28;20057;-70
2023/03/01 09:12:03;;;;;;;42.17;26.45;;;4.80;99.90;;;;;;5067151;28;20040;-70
2023/03/01 09:14:29;;;;;;;46.40;25.95;;;5.10;99.90;;;;;;5068717;28;20036;-70
2023/03/01 09:16:55;;;;;;;41.67;24.27;;;5.20;99.90;;;;;;5067881;28;20066;-70
2023/03/01 09:19:21;;;;;;;42.50;25.48;;;5.40;99.90;;;;;;5067265;28;20036;-70
2023/03/01 09:21:52;;;;;;;40.72;25.27;;;5.50;99.90;;;;;;5051576;28;20101;-70
2023/03/01 09:24:20;;;;;;;41.55;25.27;;;5.60;99.90;;;;;;5056076;28;20450;-70
2023/03/01 09:26:47;;;;;;;38.45;23.63;;;5.70;99.90;;;;;;5065404;28;20161;-70
2023/03/01 09:29:14;;;;;;;40.72;24.75;;;5.80;99.90;;;;;;5043875;28;20093;-70
2023/03/01 09:31:40;;;;;;;36.05;20.85;;;5.80;99.90;;;;;;5053948;28;20052;-70
2023/03/01 09:34:06;;;;;;;42.33;24.65;;;5.90;99.90;;;;;;5050813;28;20044;-70
2023/03/01 09:36:33;;;;;;;35.53;21.75;;;5.90;99.90;;;;;;5052639;28;20036;-70
2023/03/01 09:38:59;;;;;;;33.92;21.80;;;6.00;99.90;;;;;;5068709;28;20039;-70
2023/03/01 09:41:38;;;;;;;33.03;20.15;;;6.00;99.90;;;;;;5053333;28;20036;-70
2023/03/01 09:44:15;;;;;;;32.40;18.92;;;6.10;99.90;;;;;;5059375;28;20182;-70
2023/03/01 09:46:44;;;;;;;32.92;20.25;;;6.10;99.90;;;;;;5066073;28;20039;-70
2023/03/01 09:49:16;;;;;;;28.67;19.65;;;6.20;99.90;;;;;;5065908;28;20070;-70
2023/03/01 09:51:54;;;;;;;30.20;17.40;;;6.30;99.90;;;;;;5069372;28;20050;-70
2023/03/01 09:54:20;;;;;;;30.60;19.17;;;6.40;99.90;;;;;;5065775;28;20032;-70
2023/03/01 09:57:14;;;;;;;34.53;20.13;;;6.40;99.90;;;;;;5070188;28;20365;-70
2023/03/01 10:00:12;;;;;;;21.60;10.52;;;6.50;99.90;;;;;;5055795;28;20115;-70
2023/03/01 10:02:44;;;;;;;23.45;14.23;;;6.70;99.90;;;;;;5066884;28;20407;-70
2023/03/01 10:05:34;;;;;;;25.08;14.60;;;6.60;99.90;;;;;;5068969;28;20052;-70
2023/03/01 10:08:22;;;;;;;27.15;16.98;;;6.60;99.90;;;;;;5051533;28;20055;-70
2023/03/01 10:10:48;;;;;;;25.88;17.27;;;6.60;99.90;;;;;;5069395;28;20039;-70
2023/03/01 10:13:54;;;;;;;25.85;17.00;;;6.80;99.90;;;;;;5050545;28;20044;-70
2023/03/01 10:16:32;;;;;;;20.27;13.80;;;7.10;99.90;;;;;;5033721;28;20082;-70
2023/03/01 10:19:04;;;;;;;19.85;13.57;;;7.40;99.90;;;;;;5039831;28;20036;-70
2023/03/01 10:21:31;;;;;;;18.98;11.95;;;7.50;99.90;;;;;;5041831;28;20175;-70
2023/03/01 10:24:10;;;;;;;30.05;20.60;;;7.70;99.90;;;;;;5059682;28;20106;-70
2023/03/01 10:26:39;;;;;;;31.23;22.38;;;7.70;99.90;;;;;;5062719;28;20040;-70
2023/03/01 10:29:10;;;;;;;20.33;13.50;;;7.70;99.90;;;;;;5064237;28;20448;-70
2023/03/01 10:31:53;;;;;;;24.20;15.98;;;7.80;99.90;;;;;;5066271;28;20035;-70
2023/03/01 10:34:26;;;;;;;21.15;15.23;;;7.90;99.90;;;;;;5045146;28;20089;-70
2023/03/01 10:36:56;;;;;;;20.60;13.27;;;8.00;99.90;;;;;;5053346;28;20490;-70
2023/03/01 10:39:24;;;;;;;22.65;15.20;;;8.20;99.90;;;;;;5063306;28;20059;-70
2023/03/01 10:41:57;;;;;;;22.13;12.27;;;8.20;99.90;;;;;;5061904;28;20044;-70
2023/03/01 10:44:47;;;;;;;20.77;15.55;;;8.10;99.90;;;;;;5046470;28;20082;-70
2023/03/01 10:47:20;;;;;;;14.88;9.18;;;8.10;99.90;;;;;;5053931;28;20040;-70
2023/03/01 10:49:54;;;;;;;20.33;13.40;;;8.20;99.90;;;;;;5058321;28;20048;-70
2023/03/01 10:52:22;;;;;;;32.25;25.70;;;8.10;99.90;;;;;;5049325;28;20491;-70
2023/03/01 10:54:57;;;;;;;23.58;14.23;;;8.00;99.90;;;;;;5079135;28;20399;-70
2023/03/01 10:57:37;;;;;;;20.40;11.43;;;8.00;99.90;;;;;;5057165;28;20040;-70
2023/03/01 11:00:26;;;;;;;23.80;16.20;;;8.00;99.90;;;;;;5060253;28;20036;-70
2023/03/01 11:02:58;;;;;;;21.05;12.75;;;8.00;99.90;;;;;;5052853;28;20075;-70
2023/03/01 11:05:25;;;;;;;21.40;13.00;;;8.00;99.90;;;;;;5042204;28;20044;-70
2023/03/01 11:07:51;;;;;;;21.08;13.35;;;8.10;99.90;;;;;;5059532;28;20549;-70
2023/03/01 11:10:32;;;;;;;23.45;14.48;;;8.10;99.90;;;;;;5047113;28;20048;-70
2023/03/01 11:13:19;;;;;;;24.20;16.67;;;8.30;99.90;;;;;;5052791;28;20036;-70
2023/03/01 11:16:10;;;;;;;23.08;14.60;;;8.30;99.90;;;;;;5057394;28;20400;-70
2023/03/01 11:18:36;;;;;;;19.98;13.00;;;8.40;99.90;;;;;;5059104;28;20044;-70
2023/03/01 11:21:02;;;;;;;20.20;13.80;;;8.60;99.90;;;;;;5058734;28;20047;-70
2023/03/01 11:23:30;;;;;;;21.42;13.02;;;8.60;99.90;;;;;;5057348;28;20546;-69
2023/03/01 11:26:02;;;;;;;20.83;12.70;;;8.70;99.90;;;;;;5042303;28;20712;-70
2023/03/01 11:28:29;;;;;;;19.38;13.02;;;8.70;99.90;;;;;;5061740;28;20488;-70
2023/03/01 11:31:13;;;;;;;18.95;11.55;;;8.80;99.90;;;;;;5052469;28;20036;-70
2023/03/01 11:33:46;;;;;;;20.67;11.68;;;8.80;99.90;;;;;;5058511;28;20094;-70
2023/03/01 11:36:15;;;;;;;16.33;9.95;;;8.90;99.90;;;;;;5064488;28;20507;-70
2023/03/01 11:38:41;;;;;;;19.77;13.05;;;8.90;99.90;;;;;;5063888;28;20035;-70
2023/03/01 11:41:39;;;;;;;20.40;12.73;;;8.80;99.90;;;;;;5062962;28;20614;-70
2023/03/01 11:44:10;;;;;;;16.17;10.80;;;8.90;99.90;;;;;;4977163;28;20050;-70
2023/03/01 11:46:48;;;;;;;17.73;10.70;;;9.00;99.90;;;;;;4997698;28;20869;-70
2023/03/01 11:49:13;;;;;;;19.95;12.60;;;9.10;99.90;;;;;;5006608;28;20056;-70
2023/03/01 11:51:57;;;;;;;22.50;14.18;;;9.20;99.90;;;;;;5000450;28;20044;-70
2023/03/01 11:54:34;;;;;;;19.88;11.95;;;9.20;99.90;;;;;;4983494;28;20103;-70
2023/03/01 11:57:22;;;;;;;18.88;11.95;;;9.20;99.90;;;;;;5002639;28;20096;-70
2023/03/01 12:00:07;;;;;;;21.42;13.50;;;9.20;99.90;;;;;;5001385;28;20041;-70
2023/03/01 12:02:44;;;;;;;14.07;7.45;;;9.30;99.90;;;;;;5016039;28;20041;-70
2023/03/01 12:05:37;;;;;;;18.33;12.55;;;9.40;99.90;;;;;;5004144;28;20053;-70
2023/03/01 12:08:24;;;;;;;21.15;13.95;;;9.30;99.90;;;;;;5006234;28;20052;-70
2023/03/01 12:11:08;;;;;;;18.40;12.57;;;9.40;99.90;;;;;;4995423;28;20051;-70
2023/03/01 12:13:48;;;;;;;18.17;12.13;;;9.40;99.90;;;;;;4984955;28;20073;-70
2023/03/01 12:16:28;;;;;;;19.25;11.93;;;9.50;99.90;;;;;;5008521;28;20049;-69
2023/03/01 12:19:05;;;;;;;21.52;12.48;;;9.60;99.90;;;;;;5010170;28;20042;-70
2023/03/01 12:21:52;;;;;;;17.33;10.68;;;9.70;99.70;;;;;;5057750;28;20050;-70
2023/03/01 12:24:24;;;;;;;21.05;13.85;;;9.70;98.40;;;;;;5054211;28;20831;-70
2023/03/01 12:27:07;;;;;;;16.95;9.70;;;9.50;98.80;;;;;;5037179;28;20058;-70
2023/03/01 12:29:55;;;;;;;15.48;10.48;;;9.40;97.40;;;;;;5037201;28;20854;-69
2023/03/01 12:32:33;;;;;;;18.25;10.07;;;9.30;97.30;;;;;;5064373;28;20556;-69
2023/03/01 12:35:12;;;;;;;18.27;10.95;;;9.20;97.70;;;;;;5044758;28;20122;-69
2023/03/01 12:38:13;;;;;;;18.88;10.45;;;9.20;98.40;;;;;;5046563;28;20037;-69
2023/03/01 12:40:56;;;;;;;13.15;8.65;;;9.10;98.20;;;;;;5009079;28;20321;-69
2023/03/01 12:43:41;;;;;;;19.60;12.10;;;9.10;99.10;;;;;;5045100;28;20036;-69
2023/03/01 12:46:20;;;;;;;18.65;10.07;;;9.20;99.80;;;;;;5046125;28;20091;-69
2023/03/01 12:49:04;;;;;;;19.05;12.52;;;9.30;98.80;;;;;;5030229;28;20119;-69